Time;durP1;ratioP1;P1;durP2;ratioP2;P2;SDS_P1;SDS_P2;PMS_P1;PMS_P2;Temp;Humidity;BMP_temperature;BMP_pressure;BME280_temperature;BME280_humidity;BME280_pressure;Samples;Min_cycle;Max_cycle;Signal;HPM_P1;HPM_P2
2022/06/12 00:01:55;;;;;;;10.83;6.07;;;14.10;53.60;;;;;;5049760;28;46541;-62
2022/06/12 00:04:21;;;;;;;10.80;6.20;;;14.00;55.00;;;;;;5051803;28;46303;-63
2022/06/12 00:06:48;;;;;;;16.17;5.67;;;14.00;53.90;;;;;;5051588;28;46523;-62
2022/06/12 00:09:14;;;;;;;10.53;6.30;;;14.00;53.90;;;;;;5054453;28;46621;-63
2022/06/12 00:11:41;;;;;;;9.57;6.07;;;13.90;54.00;;;;;;5049611;28;46720;-62
2022/06/12 00:14:06;;;;;;;17.00;6.33;;;13.90;54.30;;;;;;5053665;28;46668;-63
2022/06/12 00:16:34;;;;;;;14.40;6.20;;;13.80;54.40;;;;;;5050675;28;46386;-62
2022/06/12 00:19:01;;;;;;;10.63;6.50;;;13.80;54.60;;;;;;5050049;28;46472;-63
2022/06/12 00:21:27;;;;;;;9.93;5.60;;;13.80;54.90;;;;;;5054851;28;46462;-63
2022/06/12 00:23:56;;;;;;;8.30;6.23;;;13.80;54.90;;;;;;5051621;28;46463;-63
2022/06/12 00:26:29;;;;;;;14.43;6.60;;;13.70;55.00;;;;;;5056702;28;46652;-62
2022/06/12 00:29:22;;;;;;;11.10;5.93;;;13.80;55.10;;;;;;5052138;28;45811;-62
2022/06/12 00:31:55;;;;;;;7.30;5.37;;;13.80;55.10;;;;;;5047599;28;46398;-63
2022/06/12 00:34:23;;;;;;;8.03;5.53;;;13.80;55.00;;;;;;5049728;28;46453;-63
2022/06/12 00:36:49;;;;;;;6.20;4.70;;;13.80;55.00;;;;;;5053395;28;46532;-63
2022/06/12 00:39:16;;;;;;;9.30;6.33;;;13.70;55.00;;;;;;5053435;28;46659;-63
2022/06/12 00:41:47;;;;;;;11.07;5.80;;;13.70;55.00;;;;;;5054385;28;46347;-63
2022/06/12 00:44:15;;;;;;;9.67;5.73;;;13.70;55.00;;;;;;5053723;28;47116;-63
2022/06/12 00:46:46;;;;;;;9.23;5.20;;;13.70;55.00;;;;;;5049184;28;46445;-63
2022/06/12 00:49:24;;;;;;;9.73;6.00;;;13.60;55.00;;;;;;5053301;28;46473;-62
2022/06/12 00:51:56;;;;;;;8.23;5.77;;;13.60;55.00;;;;;;5052321;28;46313;-62
2022/06/12 00:54:24;;;;;;;10.37;5.93;;;13.50;54.80;;;;;;5051983;28;49246;-63
2022/06/12 00:56:53;;;;;;;9.70;5.50;;;13.50;54.90;;;;;;5051570;28;45853;-63
2022/06/12 00:59:43;;;;;;;9.80;5.63;;;13.50;54.90;;;;;;5049068;28;46481;-62
2022/06/12 01:02:13;;;;;;;8.47;5.60;;;13.60;55.00;;;;;;5050374;28;46627;-62
2022/06/12 01:07:30;;;;;;;9.70;5.50;;;13.50;54.90;;;;;;5041217;28;46422;-63
2022/06/12 01:09:59;;;;;;;8.80;6.37;;;13.50;54.90;;;;;;5046024;28;46358;-64
2022/06/12 01:12:30;;;;;;;8.50;5.33;;;13.50;54.80;;;;;;5046031;28;46507;-64
2022/06/12 01:15:02;;;;;;;11.23;5.57;;;13.50;54.90;;;;;;5049938;28;47355;-63
2022/06/12 01:17:29;;;;;;;8.80;5.47;;;13.50;54.90;;;;;;5049841;28;45831;-64
2022/06/12 01:20:09;;;;;;;11.80;5.70;;;13.50;54.90;;;;;;5052641;28;46323;-63
2022/06/12 01:22:50;;;;;;;8.70;5.27;;;13.50;54.90;;;;;;5054844;28;46345;-63
2022/06/12 01:25:22;;;;;;;16.27;5.80;;;13.50;54.90;;;;;;5055230;28;48284;-63
2022/06/12 01:28:25;;;;;;;7.57;5.67;;;13.40;54.80;;;;;;5056182;28;46446;-62
2022/06/12 01:31:03;;;;;;;6.20;4.70;;;13.40;55.50;;;;;;5059163;28;46623;-63
2022/06/12 01:33:47;;;;;;;8.00;5.60;;;13.40;55.00;;;;;;5053554;28;46303;-63
2022/06/12 01:36:25;;;;;;;12.33;5.03;;;13.40;55.30;;;;;;5052029;28;46373;-63
2022/06/12 01:39:02;;;;;;;6.90;5.00;;;13.30;55.60;;;;;;5052484;28;46377;-63
2022/06/12 01:41:32;;;;;;;7.27;4.63;;;13.30;56.00;;;;;;5050583;28;46369;-63
2022/06/12 01:44:15;;;;;;;13.13;5.00;;;13.30;56.00;;;;;;5054069;28;46366;-63
2022/06/12 01:46:52;;;;;;;10.93;5.00;;;13.30;56.20;;;;;;5045335;28;46498;-64
2022/06/12 01:49:36;;;;;;;8.70;5.43;;;13.20;56.20;;;;;;5053012;28;46416;-63
2022/06/12 01:52:30;;;;;;;8.17;4.50;;;13.20;56.30;;;;;;5043219;28;45946;-63
2022/06/12 01:55:19;;;;;;;8.27;4.60;;;13.20;56.20;;;;;;5040609;28;46573;-63
2022/06/12 01:57:56;;;;;;;10.47;5.47;;;13.20;56.10;;;;;;5050996;28;47216;-63
2022/06/12 02:00:24;;;;;;;6.60;4.90;;;13.30;56.00;;;;;;5049064;28;46421;-63
2022/06/12 02:02:50;;;;;;;12.50;5.10;;;13.30;56.00;;;;;;5050271;28;45913;-63
2022/06/12 02:05:51;;;;;;;8.30;4.67;;;13.40;56.20;;;;;;5049404;28;45946;-64
2022/06/12 02:08:26;;;;;;;9.50;5.60;;;13.40;56.60;;;;;;5043625;28;46649;-64
2022/06/12 02:13:11;;;;;;;7.83;4.90;;;13.40;56.30;;;;;;5048275;28;46362;-61
2022/06/12 02:13:53;;;;;;;10.57;5.60;;;13.40;56.40;;;;;;5051112;27;46539;-63
2022/06/12 02:16:24;;;;;;;10.83;4.27;;;13.50;56.40;;;;;;5052107;28;45835;-63
2022/06/12 02:18:57;;;;;;;10.00;4.60;;;13.50;56.60;;;;;;5052978;28;47019;-63
2022/06/12 02:21:26;;;;;;;12.73;5.40;;;13.50;56.60;;;;;;5051278;28;46527;-64
2022/06/12 02:24:13;;;;;;;7.50;4.70;;;13.50;56.60;;;;;;5050690;28;46500;-63
2022/06/12 02:26:58;;;;;;;9.50;4.37;;;13.40;56.70;;;;;;5054905;28;45705;-65
2022/06/12 02:29:31;;;;;;;8.80;5.27;;;13.40;56.70;;;;;;5052760;28;46385;-63
2022/06/12 02:32:01;;;;;;;8.97;4.57;;;13.40;56.80;;;;;;5054107;28;45862;-63
2022/06/12 02:34:33;;;;;;;8.20;5.50;;;13.40;56.90;;;;;;5053444;28;46398;-63
2022/06/12 02:37:05;;;;;;;9.73;5.60;;;13.30;56.90;;;;;;5051679;28;46160;-63
2022/06/12 02:39:39;;;;;;;6.13;4.10;;;13.30;57.00;;;;;;5052422;28;46713;-63
2022/06/12 02:42:12;;;;;;;13.20;4.60;;;13.30;57.00;;;;;;5051621;28;46513;-63
2022/06/12 02:44:44;;;;;;;7.20;4.13;;;13.20;57.10;;;;;;5053888;28;46472;-63
2022/06/12 02:47:31;;;;;;;9.07;5.30;;;13.20;57.30;;;;;;5049625;28;46593;-63
2022/06/12 02:49:58;;;;;;;9.23;5.20;;;13.10;57.40;;;;;;5054490;28;46275;-63
2022/06/12 02:52:28;;;;;;;10.70;4.93;;;13.10;57.50;;;;;;5050301;28;46430;-63
2022/06/12 02:55:44;;;;;;;14.70;4.80;;;13.00;57.60;;;;;;5052821;28;46228;-63
2022/06/12 02:58:16;;;;;;;6.70;3.87;;;13.00;57.90;;;;;;5044697;28;45827;-63
2022/06/12 03:00:48;;;;;;;9.10;4.50;;;13.00;57.60;;;;;;5055402;28;46639;-63
2022/06/12 03:03:37;;;;;;;5.70;4.03;;;13.00;57.70;;;;;;5053097;28;46421;-62
2022/06/12 03:06:03;;;;;;;7.30;4.27;;;13.10;58.10;;;;;;5049954;28;46428;-63
2022/06/12 03:08:42;;;;;;;6.40;4.40;;;13.10;57.80;;;;;;5050383;28;46472;-64
2022/06/12 03:11:17;;;;;;;6.60;4.33;;;13.10;57.80;;;;;;5053846;28;47419;-64
2022/06/12 03:13:44;;;;;;;6.40;4.53;;;13.20;57.80;;;;;;5053685;28;46316;-64
2022/06/12 03:16:20;;;;;;;7.10;4.77;;;13.20;57.90;;;;;;5052760;28;46543;-64
2022/06/12 03:18:51;;;;;;;17.60;5.43;;;13.20;57.80;;;;;;5053641;28;46620;-65
2022/06/12 03:21:44;;;;;;;6.53;4.00;;;13.20;57.70;;;;;;5050056;27;46431;-63
2022/06/12 03:24:19;;;;;;;8.80;4.93;;;13.20;57.70;;;;;;5053522;28;46360;-63
2022/06/12 03:27:02;;;;;;;10.63;4.60;;;13.10;57.70;;;;;;5048678;28;46314;-63
2022/06/12 03:29:46;;;;;;;14.60;4.70;;;13.00;58.10;;;;;;5050923;28;46419;-63
2022/06/12 03:32:44;;;;;;;8.27;4.50;;;13.00;57.90;;;;;;5050689;28;47350;-63
2022/06/12 03:35:34;;;;;;;9.13;4.20;;;13.00;58.10;;;;;;5053173;28;45704;-62
2022/06/12 03:38:04;;;;;;;6.17;4.27;;;13.00;58.00;;;;;;5050495;28;46559;-62
2022/06/12 03:40:40;;;;;;;10.50;4.87;;;13.00;57.90;;;;;;5048167;28;46338;-63
2022/06/12 03:43:13;;;;;;;9.47;5.10;;;13.00;59.20;;;;;;5058597;28;48327;-62
2022/06/12 03:45:51;;;;;;;7.70;4.90;;;13.00;58.00;;;;;;5050389;28;46349;-62
2022/06/12 03:48:38;;;;;;;5.47;4.10;;;13.10;58.00;;;;;;5051294;28;46683;-63
2022/06/12 03:51:20;;;;;;;12.03;4.47;;;13.20;57.80;;;;;;5058304;28;46606;-63
2022/06/12 03:54:02;;;;;;;7.63;4.63;;;13.30;57.40;;;;;;5049997;28;46970;-64
2022/06/12 03:59:41;;;;;;;5.43;4.10;;;13.60;58.20;;;;;;5046460;28;46468;-63
2022/06/12 04:02:10;;;;;;;9.27;4.53;;;13.70;56.50;;;;;;5052528;28;46449;-63
2022/06/12 04:04:39;;;;;;;6.30;3.60;;;13.80;56.20;;;;;;5049999;28;46745;-63
2022/06/12 04:07:08;;;;;;;7.03;4.10;;;13.90;56.10;;;;;;5052859;28;46460;-63
2022/06/12 04:09:40;;;;;;;6.40;4.00;;;13.90;56.30;;;;;;5048171;28;46430;-63
2022/06/12 04:12:14;;;;;;;6.37;3.97;;;14.00;56.80;;;;;;5053749;28;46417;-63
2022/06/12 04:14:45;;;;;;;8.03;4.43;;;14.00;56.90;;;;;;5051925;28;46451;-64
2022/06/12 04:17:11;;;;;;;7.13;4.10;;;14.10;56.80;;;;;;5049502;28;46369;-63
2022/06/12 04:22:32;;;;;;;8.60;5.13;;;14.40;55.90;;;;;;5050452;28;46353;-63
2022/06/12 04:25:06;;;;;;;5.93;3.83;;;14.50;55.80;;;;;;5050595;28;47079;-63
2022/06/12 04:27:36;;;;;;;6.73;4.27;;;14.70;56.00;;;;;;5045147;28;46475;-63
2022/06/12 04:30:27;;;;;;;8.83;4.20;;;14.90;56.10;;;;;;5053225;28;46417;-64
2022/06/12 04:33:24;;;;;;;7.33;4.53;;;15.10;55.50;;;;;;5047751;28;46502;-63
2022/06/12 04:35:57;;;;;;;12.10;4.23;;;15.30;54.80;;;;;;5053043;27;46479;-63
2022/06/12 04:38:24;;;;;;;7.97;4.10;;;15.50;54.20;;;;;;5049653;28;46349;-63
2022/06/12 04:40:51;;;;;;;6.13;3.60;;;15.60;53.60;;;;;;5054176;28;46386;-63
2022/06/12 04:43:16;;;;;;;7.63;3.97;;;16.10;52.60;;;;;;5047582;28;46595;-63
2022/06/12 04:45:43;;;;;;;5.90;3.80;;;17.90;50.70;;;;;;5052111;28;47006;-63
2022/06/12 04:48:15;;;;;;;8.67;3.40;;;19.90;47.50;;;;;;5052005;28;46244;-63
2022/06/12 04:50:42;;;;;;;7.93;3.80;;;21.80;42.20;;;;;;5048776;28;46383;-63
2022/06/12 04:53:07;;;;;;;4.87;3.40;;;23.10;40.60;;;;;;5048555;28;45905;-63
2022/06/12 04:55:33;;;;;;;5.23;3.33;;;24.00;37.70;;;;;;5050839;28;46381;-63
2022/06/12 04:58:00;;;;;;;4.93;3.20;;;24.90;35.30;;;;;;5049947;28;46600;-63
2022/06/12 05:00:26;;;;;;;5.10;3.27;;;25.60;33.30;;;;;;5050793;28;46415;-63
2022/06/12 05:02:52;;;;;;;4.63;2.90;;;26.20;30.80;;;;;;5051204;28;46392;-63
2022/06/12 05:05:18;;;;;;;5.37;3.30;;;26.80;29.20;;;;;;5049524;28;46361;-62
2022/06/12 05:07:44;;;;;;;6.10;2.77;;;27.50;27.30;;;;;;5052692;28;46412;-63
2022/06/12 05:10:14;;;;;;;4.40;2.93;;;27.90;26.10;;;;;;5045661;28;46576;-61
2022/06/12 05:12:39;;;;;;;5.10;3.50;;;28.20;25.20;;;;;;5051850;28;46448;-61
2022/06/12 05:15:07;;;;;;;4.67;3.07;;;28.80;23.90;;;;;;5048412;28;45930;-61
2022/06/12 05:17:32;;;;;;;7.53;2.90;;;29.40;22.50;;;;;;5048950;28;46587;-62
2022/06/12 05:19:58;;;;;;;4.00;2.90;;;30.10;20.90;;;;;;5053853;28;45837;-62
2022/06/12 05:22:25;;;;;;;5.70;3.10;;;30.70;19.50;;;;;;5051714;28;46491;-61
2022/06/12 05:24:52;;;;;;;5.73;2.70;;;31.00;18.20;;;;;;5056120;28;47018;-61
2022/06/12 05:27:22;;;;;;;6.07;2.80;;;31.50;17.60;;;;;;5051594;28;45782;-62
2022/06/12 05:29:47;;;;;;;4.87;3.43;;;31.70;16.60;;;;;;5054095;28;46469;-61
2022/06/12 05:32:17;;;;;;;5.97;3.27;;;31.80;16.20;;;;;;5051963;28;46586;-62
2022/06/12 05:34:42;;;;;;;5.10;2.90;;;32.00;15.70;;;;;;5052404;28;48183;-62
2022/06/12 05:37:10;;;;;;;5.57;3.00;;;32.40;14.90;;;;;;5048342;28;46406;-62
2022/06/12 05:39:35;;;;;;;3.80;2.33;;;32.60;14.20;;;;;;5048297;28;46549;-62
2022/06/12 05:42:01;;;;;;;4.10;2.70;;;32.40;14.20;;;;;;5053085;28;46710;-61
2022/06/12 05:44:27;;;;;;;3.50;2.60;;;32.60;13.90;;;;;;5048192;28;47715;-62
2022/06/12 05:46:53;;;;;;;7.53;2.80;;;32.90;13.40;;;;;;5054959;28;46385;-62
2022/06/12 05:49:18;;;;;;;5.73;2.70;;;32.90;12.90;;;;;;5053966;28;46464;-62
2022/06/12 05:51:44;;;;;;;4.97;2.43;;;33.00;12.60;;;;;;5055021;28;46408;-62
2022/06/12 05:54:11;;;;;;;3.90;2.83;;;32.10;14.00;;;;;;5053811;28;46465;-62
2022/06/12 05:56:37;;;;;;;4.70;2.40;;;29.90;17.50;;;;;;5051454;28;46693;-61
2022/06/12 05:59:03;;;;;;;4.20;2.53;;;28.00;20.60;;;;;;5056402;28;46512;-61
2022/06/12 06:01:29;;;;;;;5.90;2.80;;;26.60;23.50;;;;;;5053171;28;46311;-61
2022/06/12 06:03:55;;;;;;;3.50;2.50;;;25.70;25.40;;;;;;5055219;28;47870;-61
2022/06/12 06:06:29;;;;;;;4.30;2.67;;;25.00;26.00;;;;;;5051692;28;46473;-60
2022/06/12 06:08:55;;;;;;;6.70;2.73;;;24.60;27.00;;;;;;5051584;28;45762;-60
2022/06/12 06:11:21;;;;;;;7.80;3.70;;;24.20;27.40;;;;;;5051764;27;46258;-62
2022/06/12 06:13:47;;;;;;;9.37;3.00;;;23.90;27.40;;;;;;5049894;28;47116;-61
2022/06/12 06:16:12;;;;;;;5.40;3.13;;;23.70;27.50;;;;;;5052930;28;46435;-62
2022/06/12 06:18:40;;;;;;;3.77;2.73;;;23.60;27.60;;;;;;5053231;28;46401;-60
2022/06/12 06:21:08;;;;;;;6.00;3.57;;;23.40;27.80;;;;;;5057153;28;46560;-62
2022/06/12 06:23:35;;;;;;;7.73;3.17;;;23.30;28.10;;;;;;5052736;28;46641;-61
2022/06/12 06:26:01;;;;;;;4.80;3.27;;;23.20;28.40;;;;;;5054605;28;46421;-61
2022/06/12 06:28:27;;;;;;;4.87;3.30;;;23.10;28.70;;;;;;5049297;28;46530;-62
2022/06/12 06:30:52;;;;;;;8.13;3.40;;;23.10;29.10;;;;;;5054192;28;46374;-61
2022/06/12 06:33:18;;;;;;;4.50;3.20;;;23.10;29.10;;;;;;5055863;28;47192;-61
2022/06/12 06:35:43;;;;;;;7.67;3.57;;;23.20;29.20;;;;;;5051969;28;46454;-61
2022/06/12 06:38:09;;;;;;;4.90;2.90;;;23.30;29.20;;;;;;5056975;28;46729;-62
2022/06/12 06:40:35;;;;;;;4.30;2.80;;;23.40;29.30;;;;;;5051375;28;46350;-62
2022/06/12 06:43:01;;;;;;;6.87;3.60;;;23.50;29.30;;;;;;5049285;28;46668;-62
2022/06/12 06:48:12;;;;;;;4.60;2.90;;;23.70;29.20;;;;;;5053308;28;46397;-61
2022/06/12 06:50:40;;;;;;;4.60;2.93;;;23.80;28.90;;;;;;5048897;28;46471;-62
2022/06/12 06:53:06;;;;;;;5.70;3.03;;;24.10;29.10;;;;;;5051740;28;46393;-61
2022/06/12 06:55:33;;;;;;;4.90;3.10;;;24.20;29.60;;;;;;5050701;28;46438;-61
2022/06/12 06:57:59;;;;;;;5.43;2.80;;;24.20;29.30;;;;;;5054840;28;46399;-61
2022/06/12 07:00:32;;;;;;;7.37;3.83;;;24.20;29.30;;;;;;5049656;28;46354;-62
2022/06/12 07:02:58;;;;;;;6.17;3.00;;;24.30;29.40;;;;;;5057364;28;47193;-61
2022/06/12 07:05:24;;;;;;;5.40;2.90;;;24.50;29.20;;;;;;5048867;28;46459;-62
2022/06/12 07:07:50;;;;;;;5.20;3.40;;;24.60;29.10;;;;;;5049122;28;46453;-62
2022/06/12 07:10:21;;;;;;;5.77;2.80;;;24.70;28.80;;;;;;5051753;28;45902;-62
2022/06/12 07:12:47;;;;;;;7.60;2.93;;;24.70;28.50;;;;;;5049788;28;46357;-61
2022/06/12 07:15:13;;;;;;;5.70;2.77;;;24.80;28.50;;;;;;5050366;28;45870;-62
2022/06/12 07:17:39;;;;;;;4.97;2.67;;;25.00;28.30;;;;;;5048182;28;46369;-61
2022/06/12 07:20:06;;;;;;;5.00;2.60;;;25.00;27.90;;;;;;5053166;28;46643;-63
2022/06/12 07:22:31;;;;;;;4.47;2.57;;;25.10;27.50;;;;;;5051261;28;46399;-62
2022/06/12 07:24:57;;;;;;;5.50;2.47;;;25.20;27.50;;;;;;5051183;28;46623;-62
2022/06/12 07:27:22;;;;;;;4.03;2.47;;;25.40;27.20;;;;;;5051625;28;46424;-61
2022/06/12 07:29:48;;;;;;;3.93;2.50;;;25.50;27.10;;;;;;5048954;28;46660;-63
2022/06/12 07:32:14;;;;;;;4.53;2.60;;;25.70;26.90;;;;;;5052794;28;48165;-62
2022/06/12 07:34:40;;;;;;;5.37;2.57;;;25.80;26.70;;;;;;5050986;28;46422;-62
2022/06/12 07:37:07;;;;;;;4.63;2.80;;;25.80;26.50;;;;;;5052633;28;46441;-61
2022/06/12 07:39:34;;;;;;;4.57;2.50;;;26.00;26.50;;;;;;5048694;28;46315;-61
2022/06/12 07:42:00;;;;;;;8.93;2.53;;;26.20;26.60;;;;;;5054397;28;47187;-62
2022/06/12 07:44:28;;;;;;;3.70;2.30;;;26.30;26.70;;;;;;5050541;28;46518;-62
2022/06/12 07:46:57;;;;;;;8.50;2.60;;;26.50;26.80;;;;;;5050292;28;46311;-63
2022/06/12 07:49:23;;;;;;;5.20;2.10;;;26.50;26.40;;;;;;5047974;28;46509;-62
2022/06/12 07:51:51;;;;;;;5.97;2.00;;;26.60;25.80;;;;;;5051733;28;47042;-62
2022/06/12 07:54:17;;;;;;;3.77;2.10;;;26.70;25.40;;;;;;5053141;28;46551;-62
2022/06/12 07:56:43;;;;;;;3.00;1.80;;;26.80;25.20;;;;;;5054765;28;46463;-62
2022/06/12 07:59:09;;;;;;;4.43;1.97;;;26.70;24.90;;;;;;5051865;28;46591;-62
2022/06/12 08:01:36;;;;;;;3.30;1.80;;;26.70;24.90;;;;;;5052783;28;46323;-63
2022/06/12 08:04:03;;;;;;;3.20;2.00;;;26.80;24.60;;;;;;5051305;28;46405;-62
2022/06/12 08:06:30;;;;;;;6.27;1.70;;;27.00;24.30;;;;;;5051540;28;45930;-61
2022/06/12 08:08:57;;;;;;;3.20;1.90;;;27.10;23.50;;;;;;5053033;28;46711;-61
2022/06/12 08:11:24;;;;;;;3.40;2.00;;;27.10;23.10;;;;;;5049455;28;47382;-61
2022/06/12 08:13:51;;;;;;;4.40;2.10;;;27.20;23.70;;;;;;5051647;28;45917;-61
2022/06/12 08:16:17;;;;;;;4.70;1.70;;;27.30;23.10;;;;;;5053044;28;46403;-61
2022/06/12 08:18:42;;;;;;;3.57;2.03;;;27.30;22.70;;;;;;5056626;28;46605;-61
2022/06/12 08:21:11;;;;;;;2.77;1.63;;;27.40;22.60;;;;;;5052082;28;47111;-60
2022/06/12 08:23:53;;;;;;;4.83;2.10;;;27.40;21.90;;;;;;5047221;28;46368;-60
2022/06/12 08:26:21;;;;;;;4.63;2.00;;;27.50;21.40;;;;;;5052500;28;46516;-60
2022/06/12 08:28:50;;;;;;;3.70;1.83;;;27.30;22.20;;;;;;5050314;28;46458;-60
2022/06/12 08:31:50;;;;;;;5.93;2.20;;;27.50;22.20;;;;;;5048216;28;46406;-59
2022/06/12 08:34:32;;;;;;;7.30;3.00;;;27.60;21.00;;;;;;5051120;28;46437;-60
2022/06/12 08:37:02;;;;;;;3.37;2.30;;;27.70;21.20;;;;;;5050747;28;46356;-61
2022/06/12 08:39:28;;;;;;;7.50;2.27;;;27.90;21.40;;;;;;5055322;28;46526;-60
2022/06/12 08:42:07;;;;;;;3.77;2.17;;;28.00;21.10;;;;;;5049648;28;47496;-60
2022/06/12 08:45:01;;;;;;;3.97;1.80;;;28.20;20.80;;;;;;5048951;28;46338;-61
2022/06/12 08:47:39;;;;;;;5.33;2.00;;;28.40;20.40;;;;;;5053350;28;46352;-61
2022/06/12 08:50:32;;;;;;;4.60;2.63;;;28.30;20.10;;;;;;5051821;28;46433;-60
2022/06/12 08:53:17;;;;;;;4.33;2.50;;;28.40;20.00;;;;;;5050630;28;46353;-61
2022/06/12 08:56:02;;;;;;;4.37;2.80;;;28.20;20.50;;;;;;5052255;28;46368;-59
2022/06/12 08:58:36;;;;;;;6.30;2.47;;;28.10;21.10;;;;;;5055768;28;46334;-60
2022/06/12 09:01:03;;;;;;;4.07;2.10;;;28.20;20.60;;;;;;5049680;28;46451;-59
2022/06/12 09:03:35;;;;;;;4.63;2.10;;;28.30;20.00;;;;;;5048236;28;48192;-59
2022/06/12 09:06:19;;;;;;;6.70;1.87;;;28.40;18.70;;;;;;5043038;28;46362;-61
2022/06/12 09:08:47;;;;;;;6.73;2.00;;;28.40;17.20;;;;;;5046714;28;46391;-60
2022/06/12 09:11:18;;;;;;;5.97;2.30;;;28.40;16.70;;;;;;5050236;28;46455;-60
2022/06/12 09:14:14;;;;;;;3.87;2.07;;;28.50;16.70;;;;;;5050751;28;47161;-61
2022/06/12 09:17:13;;;;;;;4.70;1.87;;;28.60;16.80;;;;;;5051052;28;46422;-63
2022/06/12 09:20:01;;;;;;;4.83;2.03;;;28.60;16.80;;;;;;5051751;28;46476;-60
2022/06/12 09:22:55;;;;;;;5.40;2.20;;;28.60;16.30;;;;;;5051094;28;46513;-61
2022/06/12 09:25:31;;;;;;;4.90;1.97;;;28.60;16.20;;;;;;5050854;28;46374;-62
2022/06/12 09:28:21;;;;;;;3.60;2.20;;;28.70;16.90;;;;;;5048766;28;46429;-60
2022/06/12 09:30:53;;;;;;;9.60;2.07;;;28.70;16.90;;;;;;5052864;28;63043;-61
2022/06/12 09:33:30;;;;;;;3.50;1.97;;;28.70;16.90;;;;;;5047520;28;46551;-60
2022/06/12 09:36:24;;;;;;;8.90;2.30;;;28.80;16.90;;;;;;5049281;28;46291;-60
2022/06/12 09:38:52;;;;;;;3.97;1.90;;;28.90;16.60;;;;;;5049976;28;46358;-60
2022/06/12 09:41:18;;;;;;;6.20;2.30;;;28.90;16.60;;;;;;5049121;28;45763;-61
2022/06/12 09:44:05;;;;;;;8.30;2.17;;;28.50;16.00;;;;;;5052449;28;46591;-60
2022/06/12 09:46:35;;;;;;;4.90;2.00;;;28.50;15.30;;;;;;5047008;28;47264;-60
2022/06/12 09:49:15;;;;;;;9.47;2.07;;;28.50;15.20;;;;;;5053077;28;45817;-60
2022/06/12 09:52:02;;;;;;;4.90;2.00;;;28.50;14.70;;;;;;5049435;28;46386;-60
2022/06/12 09:54:35;;;;;;;6.23;2.20;;;28.40;14.90;;;;;;5051844;28;45912;-59
2022/06/12 09:57:06;;;;;;;4.43;2.00;;;28.60;15.40;;;;;;5048162;28;46445;-61
2022/06/12 09:59:55;;;;;;;6.40;2.00;;;28.70;15.20;;;;;;5052461;28;46401;-61
2022/06/12 10:02:31;;;;;;;4.93;2.33;;;28.80;14.70;;;;;;5050980;28;46527;-59
2022/06/12 10:05:15;;;;;;;4.00;2.13;;;28.90;14.60;;;;;;5051731;28;46632;-61
2022/06/12 10:08:02;;;;;;;5.50;1.90;;;29.00;14.10;;;;;;5049397;28;48554;-59
2022/06/12 10:10:33;;;;;;;6.93;2.30;;;28.90;14.50;;;;;;5051549;28;46432;-60
2022/06/12 10:13:07;;;;;;;7.50;2.07;;;28.90;14.60;;;;;;5047938;28;46421;-61
2022/06/12 10:15:43;;;;;;;3.37;1.80;;;28.90;13.80;;;;;;5048978;28;46386;-61
2022/06/12 10:18:22;;;;;;;3.40;1.60;;;28.80;13.50;;;;;;5047757;28;46338;-60
2022/06/12 10:20:56;;;;;;;4.40;2.03;;;28.80;13.80;;;;;;5041839;28;46708;-62
2022/06/12 10:23:23;;;;;;;4.93;2.00;;;28.80;14.10;;;;;;5049010;28;46508;-61
2022/06/12 10:25:54;;;;;;;4.10;1.80;;;28.70;14.30;;;;;;5049360;28;46617;-61
2022/06/12 10:28:23;;;;;;;3.80;1.63;;;28.80;14.30;;;;;;5053038;28;46430;-60
2022/06/12 10:31:10;;;;;;;4.77;2.10;;;28.70;13.50;;;;;;5052326;28;46519;-61
2022/06/12 10:33:41;;;;;;;4.10;1.90;;;28.70;13.10;;;;;;5047848;28;46518;-60
2022/06/12 10:36:29;;;;;;;3.03;2.10;;;28.80;14.40;;;;;;5052421;28;46810;-61
2022/06/12 10:39:10;;;;;;;4.70;2.90;;;28.90;14.70;;;;;;5050310;28;47564;-60
2022/06/12 10:41:45;;;;;;;6.43;2.07;;;29.00;14.20;;;;;;5054474;28;46448;-61
2022/06/12 10:44:28;;;;;;;4.60;2.03;;;29.10;14.00;;;;;;5054762;28;46406;-62
2022/06/12 10:46:53;;;;;;;4.80;2.00;;;29.10;13.60;;;;;;5048447;28;46435;-62
2022/06/12 10:49:23;;;;;;;3.30;1.70;;;29.20;14.10;;;;;;5052774;28;46637;-63
2022/06/12 10:52:04;;;;;;;3.60;1.83;;;29.20;13.40;;;;;;5047675;28;46638;-61
2022/06/12 10:54:30;;;;;;;4.00;1.70;;;29.10;13.50;;;;;;5052725;28;46440;-62
2022/06/12 10:57:33;;;;;;;5.30;2.30;;;29.20;13.40;;;;;;5051698;28;46581;-59
2022/06/12 11:00:07;;;;;;;4.63;1.70;;;29.30;13.80;;;;;;5054323;28;48085;-62
2022/06/12 11:02:54;;;;;;;3.70;1.70;;;29.30;13.80;;;;;;5055638;28;46552;-61
2022/06/12 11:05:48;;;;;;;3.77;1.87;;;29.30;13.20;;;;;;5054981;28;46358;-61
2022/06/12 11:08:25;;;;;;;4.57;2.17;;;29.20;12.80;;;;;;5056667;28;46325;-60
2022/06/12 11:11:05;;;;;;;4.60;2.07;;;29.30;12.90;;;;;;5056283;28;46493;-60
2022/06/12 11:13:54;;;;;;;4.20;2.10;;;29.20;12.80;;;;;;5054335;28;45755;-60
2022/06/12 11:16:30;;;;;;;3.33;1.47;;;29.10;13.70;;;;;;5048703;28;46406;-59
2022/06/12 11:19:40;;;;;;;3.43;1.60;;;28.80;13.70;;;;;;5050562;28;46441;-59
2022/06/12 11:22:23;;;;;;;5.40;2.10;;;28.80;12.40;;;;;;5053742;28;46388;-61
2022/06/12 11:25:33;;;;;;;6.10;1.70;;;28.70;12.50;;;;;;5055660;28;46424;-60
2022/06/12 11:28:31;;;;;;;5.00;1.60;;;29.00;12.70;;;;;;5048996;28;46843;-61
2022/06/12 11:31:25;;;;;;;5.60;2.03;;;29.00;12.30;;;;;;5025515;28;46434;-59
2022/06/12 11:34:16;;;;;;;5.70;1.83;;;29.00;12.10;;;;;;5015442;28;46500;-61
2022/06/12 11:36:53;;;;;;;6.23;1.83;;;29.10;12.30;;;;;;5049161;28;46345;-62
2022/06/12 11:39:32;;;;;;;5.50;2.20;;;29.00;12.60;;;;;;5052280;28;46554;-62
2022/06/12 11:42:15;;;;;;;3.67;1.57;;;28.70;12.20;;;;;;5052158;28;46389;-61
2022/06/12 11:44:41;;;;;;;4.77;1.83;;;28.70;11.90;;;;;;5051668;28;46654;-59
2022/06/12 11:47:27;;;;;;;4.10;2.00;;;28.90;12.00;;;;;;5052008;28;46270;-61
2022/06/12 11:50:12;;;;;;;8.30;1.80;;;28.80;11.60;;;;;;5052651;28;46646;-61
2022/06/12 11:53:00;;;;;;;4.20;1.63;;;28.80;12.20;;;;;;5053315;28;46499;-60
2022/06/12 11:55:42;;;;;;;8.03;1.77;;;28.90;13.50;;;;;;5050874;28;46408;-62
2022/06/12 11:58:21;;;;;;;3.00;1.90;;;29.10;13.00;;;;;;5048811;28;46487;-60
2022/06/12 12:01:10;;;;;;;6.50;2.07;;;29.20;13.10;;;;;;5051903;28;46396;-60
2022/06/12 12:04:03;;;;;;;3.80;1.77;;;29.30;12.50;;;;;;5051782;28;45796;-61
2022/06/12 12:06:38;;;;;;;3.90;1.73;;;29.30;13.00;;;;;;5049753;28;47034;-59
2022/06/12 12:09:22;;;;;;;3.60;1.60;;;29.40;12.70;;;;;;5052367;28;46399;-60
2022/06/12 12:11:59;;;;;;;4.47;2.07;;;29.50;12.20;;;;;;5052365;28;46409;-59
2022/06/12 12:14:30;;;;;;;2.87;1.50;;;29.40;12.10;;;;;;5050796;28;46804;-61
2022/06/12 12:17:23;;;;;;;4.00;1.23;;;29.50;11.50;;;;;;5054216;28;47053;-60
2022/06/12 12:20:04;;;;;;;3.83;1.60;;;29.50;11.40;;;;;;5051452;28;46509;-60
2022/06/12 12:22:40;;;;;;;3.30;1.70;;;29.50;12.20;;;;;;5049956;28;46404;-60
2022/06/12 12:25:25;;;;;;;3.50;1.90;;;29.40;12.60;;;;;;5051446;28;46456;-60
2022/06/12 12:27:54;;;;;;;4.87;1.50;;;29.60;12.20;;;;;;5050255;28;46416;-59
2022/06/12 12:30:23;;;;;;;4.70;1.70;;;29.70;12.30;;;;;;5050579;28;46433;-61
2022/06/12 12:32:52;;;;;;;3.23;1.70;;;29.70;11.70;;;;;;5050294;28;46362;-62
2022/06/12 12:43:33;;;;;;;4.70;1.50;;;29.70;11.50;;;;;;5060528;28;46783;-59
2022/06/12 12:46:05;;;;;;;3.03;1.57;;;29.70;11.90;;;;;;5050386;28;46740;-60
2022/06/12 12:48:43;;;;;;;3.40;1.70;;;29.60;12.30;;;;;;5046207;28;45971;-61
2022/06/12 12:51:10;;;;;;;3.70;1.40;;;29.60;11.50;;;;;;5052210;28;46545;-61
2022/06/12 12:53:38;;;;;;;4.30;1.53;;;29.60;11.40;;;;;;5052667;28;46454;-61
2022/06/12 12:56:15;;;;;;;3.50;1.60;;;29.70;11.30;;;;;;5049857;28;46753;-61
2022/06/12 12:58:55;;;;;;;2.73;1.50;;;29.90;10.70;;;;;;5052005;28;46723;-60
2022/06/12 13:01:27;;;;;;;4.53;1.40;;;30.00;10.50;;;;;;5050809;28;46392;-60
2022/06/12 13:03:57;;;;;;;4.90;1.40;;;29.90;10.10;;;;;;5050809;28;46531;-59
2022/06/12 13:06:41;;;;;;;4.80;1.70;;;29.90;10.30;;;;;;5054075;28;46429;-61
2022/06/12 13:09:42;;;;;;;2.67;1.23;;;29.90;10.30;;;;;;5051792;28;46370;-61
2022/06/12 13:12:37;;;;;;;3.20;1.90;;;30.00;10.40;;;;;;5040221;28;46609;-63
2022/06/12 13:15:21;;;;;;;3.60;1.50;;;29.80;10.70;;;;;;5047191;28;46382;-61
2022/06/12 13:17:55;;;;;;;3.50;1.33;;;29.80;10.10;;;;;;5049519;28;46620;-62
2022/06/12 13:20:44;;;;;;;4.37;1.50;;;29.70;10.00;;;;;;5045817;28;46458;-62
2022/06/12 13:23:31;;;;;;;4.63;1.60;;;29.70;10.30;;;;;;5052028;28;46419;-62
2022/06/12 13:26:00;;;;;;;4.93;1.67;;;29.70;10.60;;;;;;5051366;28;47346;-62
2022/06/12 13:28:27;;;;;;;5.37;2.00;;;29.70;10.30;;;;;;5052958;28;46774;-62
2022/06/12 13:30:54;;;;;;;3.53;1.97;;;29.70;10.30;;;;;;5051104;28;46397;-63
2022/06/12 13:33:29;;;;;;;2.97;1.50;;;29.70;10.40;;;;;;5054313;28;46039;-64
2022/06/12 13:36:10;;;;;;;3.23;1.67;;;29.50;11.90;;;;;;5051749;28;46817;-62
2022/06/12 13:38:57;;;;;;;3.60;1.67;;;29.40;10.60;;;;;;5051993;28;46545;-62
2022/06/12 13:41:40;;;;;;;4.20;1.73;;;29.30;11.20;;;;;;5050274;28;46486;-61
2022/06/12 13:44:29;;;;;;;2.50;1.40;;;29.30;11.10;;;;;;5051281;28;46496;-62